KBDR

Igor I Sikorsky Memorial Airport

Bridgeport, Connecticut, USA
KBDR 180834Z 1809/1906 21004KT P6SM BKN040 FM181400 24008KT P6SM VCTS BKN050CB FM182200 32008KT P6SM VCSH BKN050 PROB30 1822/1903 2SM TSRA OVC040CB FM190300 03005KT P6SM VCSH BKN035
Issued Valid From Valid To
Aug-18 @ 08:34 UTC
(17 minutes ago)
Aug-18 @ 09:00 UTC
(in 9 minutes)
Aug-19 @ 06:00 UTC
(in 21 hours)
Aug-18 @ 09:00 to Aug-18 @ 14:00
KBDR 180834Z 1809/1906 21004KT P6SM BKN040
Wind Visibility Clouds
210° at 4 knots Greater than 6 miles
  • Broken at 4,000' AGL
From Aug-18 @ 14:00 to Aug-18 @ 22:00
FM181400 24008KT P6SM VCTS BKN050CB
Wind Visibility Clouds Conditions
240° at 8 knots Greater than 6 miles
  • Broken at 5,000' AGL
  • Area Thunderstorm
From Aug-18 @ 22:00 to Aug-19 @ 03:00
FM182200 32008KT P6SM VCSH BKN050
Wind Visibility Clouds
320° at 8 knots Greater than 6 miles
  • Broken at 5,000' AGL
Probable  (Probability 30%) Aug-18 @ 22:00 to Aug-19 @ 03:00
PROB30 1822/1903 2SM TSRA OVC040CB
Visibility Clouds Conditions
2 miles
  • Overcast at 4,000' AGL
  • Thunderstorm
  • Rain
From Aug-19 @ 03:00 to Aug-19 @ 06:00
FM190300 03005KT P6SM VCSH BKN035
Wind Visibility Clouds
30° at 5 knots Greater than 6 miles
  • Broken at 3,500' AGL
KBDR 180834Z 1809/1906 21004KT P6SM BKN040 FM181400 24008KT P6SM VCTS BKN050CB FM182200 32008KT P6SM VCSH BKN050 PROB30 1822/1903 2SM TSRA OVC040CB FM190300 03005KT P6SM VCSH BKN035
Issued Aug-18 @ 08:34 UTC
(17 minutes ago)
Valid From Aug-18 @ 09:00 UTC
(in 9 minutes)
Valid To Aug-19 @ 06:00 UTC
(in 21 hours)
Aug-18 @ 09:00 - Aug-18 @ 14:00
Wind Visibility
210° at 4 knots Greater than 6 miles
Clouds
  • Broken at 4,000' AGL
From Aug-18 @ 14:00 - Aug-18 @ 22:00
Wind Visibility
240° at 8 knots Greater than 6 miles
Clouds
  • Broken at 5,000' AGL
Conditions
  • Area Thunderstorm
From Aug-18 @ 22:00 - Aug-19 @ 03:00
Wind Visibility
320° at 8 knots Greater than 6 miles
Clouds
  • Broken at 5,000' AGL
Probability 30% Probable Aug-18 @ 22:00 - Aug-19 @ 03:00
Clouds
  • Overcast at 4,000' AGL
Conditions
  • Thunderstorm
  • Rain
From Aug-19 @ 03:00 - Aug-19 @ 06:00
Wind Visibility
30° at 5 knots Greater than 6 miles
Clouds
  • Broken at 3,500' AGL